Time;durP1;ratioP1;P1;durP2;ratioP2;P2;SDS_P1;SDS_P2;PMS_P1;PMS_P2;Temp;Humidity;BMP_temperature;BMP_pressure;BME280_temperature;BME280_humidity;BME280_pressure;Samples;Min_cycle;Max_cycle;Signal;HPM_P1;HPM_P2
2023/05/15 00:02:12;;;;;;;3.90;2.70;;;;;;;16.91;40.46;99936.47;4214331;28;20240;-63
2023/05/15 00:04:38;;;;;;;7.17;3.20;;;;;;;16.93;40.15;99932.53;4207858;28;20278;-64
2023/05/15 00:07:05;;;;;;;6.40;2.60;;;;;;;16.86;40.36;99922.59;4208291;28;20578;-64
2023/05/15 00:09:31;;;;;;;8.97;3.00;;;;;;;16.83;40.82;99933.91;4214236;28;20296;-62
2023/05/15 00:11:59;;;;;;;7.17;2.40;;;;;;;16.84;40.81;99928.25;4209284;28;23521;-65
2023/05/15 00:14:25;;;;;;;13.07;3.13;;;;;;;16.81;40.73;99936.84;4209964;28;21744;-65
2023/05/15 00:16:52;;;;;;;7.90;2.77;;;;;;;16.83;40.47;99925.72;4221205;28;20229;-65
2023/05/15 00:19:18;;;;;;;7.60;2.90;;;;;;;16.84;40.73;99920.06;4213717;28;23060;-61
2023/05/15 00:21:45;;;;;;;7.47;2.53;;;;;;;16.83;40.90;99910.16;4225374;28;20278;-63
2023/05/15 00:24:11;;;;;;;4.17;2.97;;;;;;;16.76;41.28;99915.59;4210115;28;21335;-66
2023/05/15 00:26:38;;;;;;;8.73;2.83;;;;;;;16.78;40.93;99916.22;4222394;28;20249;-64
2023/05/15 00:29:04;;;;;;;9.27;2.63;;;;;;;16.78;41.37;99907.16;4240485;28;20428;-64
2023/05/15 00:31:32;;;;;;;8.73;2.57;;;;;;;16.74;40.88;99901.25;4220460;28;20381;-63
2023/05/15 00:33:59;;;;;;;4.73;2.50;;;;;;;16.63;41.38;99897.22;4213141;28;20282;-64
2023/05/15 00:36:25;;;;;;;7.87;2.83;;;;;;;16.56;41.43;99895.50;4209808;28;20354;-63
2023/05/15 00:38:52;;;;;;;10.13;3.10;;;;;;;16.61;41.57;99893.84;4207984;28;20244;-63
2023/05/15 00:41:21;;;;;;;7.70;3.00;;;;;;;16.56;41.50;99885.41;4209367;28;20322;-65
2023/05/15 00:43:50;;;;;;;7.93;2.70;;;;;;;16.50;41.65;99886.19;4210516;28;20454;-65
2023/05/15 00:46:16;;;;;;;7.13;2.53;;;;;;;16.55;41.36;99880.97;4203961;28;20251;-62
2023/05/15 00:48:43;;;;;;;13.53;2.43;;;;;;;16.63;41.38;99882.72;4226052;28;20780;-67
2023/05/15 00:51:10;;;;;;;5.17;2.50;;;;;;;16.62;40.94;99867.34;4207720;28;20279;-66
2023/05/15 00:53:37;;;;;;;5.07;2.40;;;;;;;16.67;40.59;99869.50;4207486;28;20259;-64
2023/05/15 00:56:04;;;;;;;9.87;2.67;;;;;;;16.65;40.82;99877.91;4224736;28;20240;-64
2023/05/15 00:58:31;;;;;;;7.07;2.50;;;;;;;16.58;40.91;99887.91;4231918;28;20476;-66
2023/05/15 01:00:58;;;;;;;7.13;2.47;;;;;;;16.63;40.85;99904.56;4212734;28;20313;-64
2023/05/15 01:03:24;;;;;;;7.17;2.53;;;;;;;16.69;40.70;99900.19;4207662;28;22015;-63
2023/05/15 01:05:51;;;;;;;8.23;2.40;;;;;;;16.61;41.19;99902.06;4221079;28;21816;-64
2023/05/15 01:08:41;;;;;;;5.03;2.80;;;;;;;16.57;41.27;99894.44;4217586;28;20427;-63
2023/05/15 01:11:10;;;;;;;4.17;2.20;;;;;;;16.48;41.25;99875.47;4215391;28;20229;-63
2023/05/15 01:13:36;;;;;;;10.30;3.00;;;;;;;16.46;41.43;99876.72;4208826;28;20414;-67
2023/05/15 01:16:03;;;;;;;8.37;2.87;;;;;;;16.42;41.79;99872.69;4203599;28;21296;-65
2023/05/15 01:18:32;;;;;;;5.37;2.40;;;;;;;16.39;41.59;99873.94;4206720;28;20331;-63
2023/05/15 01:21:04;;;;;;;11.20;3.00;;;;;;;16.39;41.90;99884.88;4206029;28;20877;-64
2023/05/15 01:23:50;;;;;;;8.00;2.60;;;;;;;16.33;42.07;99874.75;4215884;28;21751;-65
2023/05/15 01:26:55;;;;;;;5.03;2.70;;;;;;;16.27;42.11;99868.19;4202042;28;20995;-62
2023/05/15 01:29:40;;;;;;;8.47;2.50;;;;;;;16.25;42.32;99850.31;4223843;28;20479;-64
2023/05/15 01:32:11;;;;;;;9.27;2.80;;;;;;;16.26;42.29;99841.06;4210408;28;20414;-63
2023/05/15 01:34:45;;;;;;;10.13;2.47;;;;;;;16.24;42.46;99841.25;4215686;28;20635;-64
2023/05/15 01:37:13;;;;;;;9.13;2.80;;;;;;;16.28;42.04;99836.25;4200055;28;20247;-66
2023/05/15 01:39:41;;;;;;;4.17;2.40;;;;;;;16.21;42.07;99838.09;4220884;28;22196;-63
2023/05/15 01:42:09;;;;;;;9.50;2.30;;;;;;;16.16;42.52;99849.63;4205702;28;20236;-65
2023/05/15 01:44:39;;;;;;;5.20;2.53;;;;;;;16.12;42.60;99845.59;4220183;28;21984;-63
2023/05/15 01:47:09;;;;;;;6.23;2.70;;;;;;;16.09;42.63;99827.72;4211871;28;21184;-63
2023/05/15 01:49:36;;;;;;;10.00;2.80;;;;;;;16.07;42.83;99831.69;4208900;28;20310;-66
2023/05/15 01:52:13;;;;;;;8.40;2.43;;;;;;;16.05;42.94;99834.59;4208059;28;20232;-65
2023/05/15 01:54:41;;;;;;;3.80;2.27;;;;;;;15.99;42.94;99824.47;4219011;28;20340;-63
2023/05/15 01:57:09;;;;;;;6.43;2.60;;;;;;;15.97;43.03;99816.50;4206966;28;21846;-64
2023/05/15 01:59:36;;;;;;;9.10;2.43;;;;;;;15.99;43.08;99811.69;4204744;28;23258;-64
2023/05/15 02:02:06;;;;;;;5.77;2.67;;;;;;;15.96;43.15;99816.72;4205706;28;20286;-65
2023/05/15 02:04:33;;;;;;;7.23;2.60;;;;;;;15.93;43.14;99815.22;4208140;28;20819;-64
2023/05/15 02:07:00;;;;;;;7.07;2.60;;;;;;;15.90;43.50;99812.03;4209047;28;20240;-66
2023/05/15 02:09:27;;;;;;;6.53;2.40;;;;;;;15.89;43.79;99833.03;4223930;28;21742;-66
2023/05/15 02:11:55;;;;;;;7.70;2.87;;;;;;;15.80;44.04;99825.97;4204416;28;20256;-64
2023/05/15 02:14:21;;;;;;;7.27;2.67;;;;;;;15.82;44.03;99823.91;4220305;28;20230;-66
2023/05/15 02:16:48;;;;;;;6.73;2.97;;;;;;;15.78;44.09;99817.16;4216126;28;20313;-62
2023/05/15 02:19:14;;;;;;;10.57;2.87;;;;;;;15.73;44.00;99808.69;4207244;28;23773;-68
2023/05/15 02:21:41;;;;;;;8.47;2.77;;;;;;;15.77;44.12;99804.56;4209167;28;21020;-66
2023/05/15 02:24:07;;;;;;;6.70;3.13;;;;;;;15.69;44.17;99795.47;4206170;28;20239;-63
2023/05/15 02:26:59;;;;;;;7.63;2.47;;;;;;;15.69;44.27;99808.25;4211888;28;20236;-65
2023/05/15 02:29:56;;;;;;;6.57;2.50;;;;;;;15.66;44.73;99801.31;4206118;28;20237;-66
2023/05/15 02:32:46;;;;;;;6.97;2.53;;;;;;;15.65;44.96;99794.16;4204164;28;20286;-64
2023/05/15 02:35:45;;;;;;;8.90;3.37;;;;;;;15.69;45.04;99787.28;4211013;28;20292;-64
2023/05/15 02:38:15;;;;;;;6.50;2.40;;;;;;;15.66;44.63;99776.75;4215797;28;20303;-64
2023/05/15 02:40:44;;;;;;;12.27;2.70;;;;;;;15.60;44.94;99771.22;4203567;28;20284;-66
2023/05/15 02:43:11;;;;;;;7.27;2.80;;;;;;;15.59;45.17;99762.22;4194435;28;22360;-62
2023/05/15 02:45:38;;;;;;;6.20;3.03;;;;;;;15.58;44.85;99760.53;4222733;28;20247;-64
2023/05/15 02:48:05;;;;;;;9.87;2.83;;;;;;;15.53;45.13;99763.84;4210338;28;20236;-63
2023/05/15 02:50:32;;;;;;;7.00;2.37;;;;;;;15.47;45.18;99747.44;4221369;28;20238;-66
2023/05/15 02:53:06;;;;;;;7.60;2.37;;;;;;;15.56;45.07;99759.03;4214935;28;20232;-65
2023/05/15 02:55:33;;;;;;;7.10;2.67;;;;;;;15.51;45.27;99743.25;4197381;28;22742;-67
2023/05/15 02:57:59;;;;;;;5.57;2.40;;;;;;;15.50;45.31;99739.69;4218426;28;20237;-64
2023/05/15 03:00:26;;;;;;;5.27;2.63;;;;;;;15.49;45.58;99740.72;4222808;28;20305;-64
2023/05/15 03:02:52;;;;;;;5.77;2.77;;;;;;;15.52;45.58;99734.88;4216636;28;23415;-65
2023/05/15 03:05:19;;;;;;;7.83;2.90;;;;;;;15.50;45.48;99736.09;4206549;28;21636;-65
2023/05/15 03:07:46;;;;;;;6.63;2.63;;;;;;;15.50;45.37;99736.97;4212925;28;20248;-68
2023/05/15 03:10:13;;;;;;;8.17;2.57;;;;;;;15.57;45.14;99734.28;4217390;28;20229;-65
2023/05/15 03:12:39;;;;;;;4.50;2.70;;;;;;;15.55;45.11;99722.75;4213617;28;21163;-64
2023/05/15 03:15:06;;;;;;;8.13;2.70;;;;;;;15.59;44.86;99721.28;4210209;28;20308;-66
2023/05/15 03:17:32;;;;;;;9.60;2.87;;;;;;;15.52;45.31;99710.31;4214069;28;20301;-63
2023/05/15 03:19:59;;;;;;;6.03;2.63;;;;;;;15.53;45.30;99709.28;4215966;28;20386;-64
2023/05/15 03:22:25;;;;;;;8.97;3.00;;;;;;;15.55;45.42;99713.69;4214907;28;20235;-65
2023/05/15 03:24:52;;;;;;;6.87;2.93;;;;;;;15.51;45.40;99702.34;4214059;28;23077;-66
2023/05/15 03:27:18;;;;;;;7.20;2.63;;;;;;;15.51;45.57;99696.88;4215582;28;20262;-65
2023/05/15 03:29:45;;;;;;;4.60;2.47;;;;;;;15.48;45.31;99695.41;4220011;28;20398;-65
2023/05/15 03:32:11;;;;;;;7.20;2.57;;;;;;;15.49;45.51;99693.50;4223970;28;20242;-64
2023/05/15 03:34:38;;;;;;;5.57;2.90;;;;;;;15.47;45.61;99699.16;4202151;28;20334;-63
2023/05/15 03:37:06;;;;;;;7.47;2.50;;;;;;;15.46;45.34;99692.03;4214254;28;20231;-64
2023/05/15 03:39:33;;;;;;;6.10;2.90;;;;;;;15.49;45.35;99682.59;4216645;28;20220;-66
2023/05/15 03:41:59;;;;;;;5.90;2.90;;;;;;;15.45;45.48;99673.13;4226795;28;20244;-64
2023/05/15 03:44:26;;;;;;;8.30;2.87;;;;;;;15.43;45.73;99676.06;4213589;28;20591;-65
2023/05/15 03:46:52;;;;;;;8.43;2.70;;;;;;;15.44;45.56;99669.56;4218236;28;20316;-65
2023/05/15 03:49:19;;;;;;;7.27;2.70;;;;;;;15.46;45.95;99677.56;4213093;28;20242;-65
2023/05/15 03:51:45;;;;;;;5.17;2.70;;;;;;;15.47;45.93;99671.06;4213892;28;20243;-65
2023/05/15 03:54:12;;;;;;;5.53;2.43;;;;;;;15.49;45.79;99672.53;4206257;28;20511;-64
2023/05/15 03:56:38;;;;;;;9.63;2.63;;;;;;;15.52;45.80;99672.13;4204040;28;21264;-64
2023/05/15 03:59:05;;;;;;;9.97;2.70;;;;;;;15.52;46.19;99663.13;4218779;28;20233;-67
2023/05/15 04:01:31;;;;;;;8.57;2.67;;;;;;;15.50;46.01;99671.50;4208424;28;22258;-63
2023/05/15 04:04:02;;;;;;;10.80;3.33;;;;;;;15.45;46.37;99673.97;4215932;28;20228;-63
2023/05/15 04:06:29;;;;;;;8.63;2.77;;;;;;;15.49;46.48;99672.53;4203472;28;20249;-63
2023/05/15 04:08:55;;;;;;;5.73;2.50;;;;;;;15.55;46.54;99668.19;4218099;28;20274;-68
2023/05/15 04:11:23;;;;;;;8.07;2.80;;;;;;;15.53;46.25;99659.34;4212484;28;21627;-65
2023/05/15 04:13:51;;;;;;;6.40;2.77;;;;;;;15.51;46.52;99645.06;4208658;28;20310;-65
2023/05/15 04:16:17;;;;;;;13.67;3.30;;;;;;;15.49;47.21;99647.13;4210949;28;20252;-65
2023/05/15 04:18:44;;;;;;;14.27;2.80;;;;;;;15.45;47.87;99640.41;4216870;28;20250;-66
2023/05/15 04:21:10;;;;;;;6.63;2.80;;;;;;;15.44;47.85;99646.91;4213660;28;22285;-63
2023/05/15 04:23:37;;;;;;;9.43;2.83;;;;;;;15.45;47.03;99643.97;4216640;28;20240;-66
2023/05/15 04:26:03;;;;;;;9.50;3.07;;;;;;;15.35;48.63;99632.56;4200869;28;20300;-68
2023/05/15 04:28:31;;;;;;;14.07;2.70;;;;;;;15.42;47.69;99627.16;4207791;28;22682;-65
2023/05/15 04:30:58;;;;;;;6.20;3.10;;;;;;;15.42;48.25;99627.16;4218745;28;20408;-64
2023/05/15 04:33:24;;;;;;;7.97;3.03;;;;;;;15.26;48.41;99620.13;4212490;28;20357;-63
2023/05/15 04:35:52;;;;;;;10.53;3.07;;;;;;;15.24;48.56;99631.25;4189106;28;20283;-64
2023/05/15 04:38:18;;;;;;;6.53;3.20;;;;;;;15.30;48.62;99629.59;4224811;28;20408;-65
2023/05/15 04:40:45;;;;;;;9.27;2.90;;;;;;;15.33;48.54;99627.31;4195863;28;20244;-63
2023/05/15 04:43:11;;;;;;;9.40;3.40;;;;;;;15.35;48.55;99624.41;4202404;28;20416;-64
2023/05/15 04:45:38;;;;;;;6.37;3.00;;;;;;;15.31;47.95;99623.94;4196464;28;20237;-63
2023/05/15 04:48:05;;;;;;;8.80;3.00;;;;;;;15.34;47.70;99623.53;4219240;28;20588;-64
2023/05/15 04:50:31;;;;;;;8.27;2.73;;;;;;;15.42;47.44;99619.84;4215358;28;20236;-67
2023/05/15 04:52:58;;;;;;;8.43;3.10;;;;;;;15.46;47.62;99617.56;4205587;28;20243;-63
2023/05/15 04:55:25;;;;;;;13.90;2.90;;;;;;;15.47;48.50;99624.69;4216743;28;20243;-63
2023/05/15 04:57:51;;;;;;;7.60;2.83;;;;;;;15.44;47.69;99619.63;4221555;28;20270;-60
2023/05/15 05:00:18;;;;;;;9.80;3.00;;;;;;;15.50;48.76;99621.53;4216129;28;20601;-64
2023/05/15 05:02:45;;;;;;;8.13;3.00;;;;;;;15.48;48.95;99602.66;4207540;28;20306;-66
2023/05/15 05:05:13;;;;;;;10.73;3.40;;;;;;;15.46;48.92;99610.19;4205486;28;20238;-64
2023/05/15 05:07:41;;;;;;;8.80;2.97;;;;;;;15.46;48.37;99609.38;4214957;28;20426;-66
2023/05/15 05:10:08;;;;;;;5.60;3.07;;;;;;;15.47;48.52;99608.31;4215281;28;22977;-66
2023/05/15 05:12:34;;;;;;;10.03;2.90;;;;;;;15.57;47.82;99597.88;4205607;28;20401;-66
2023/05/15 05:15:01;;;;;;;5.90;2.50;;;;;;;15.58;48.27;99593.28;4223007;28;20402;-67
2023/05/15 05:17:28;;;;;;;5.37;2.90;;;;;;;15.46;49.13;99591.09;4215190;28;20228;-67
2023/05/15 05:19:55;;;;;;;8.83;3.20;;;;;;;15.42;49.01;99578.06;4223033;28;20468;-66
2023/05/15 05:22:21;;;;;;;9.33;2.80;;;;;;;15.42;48.53;99583.50;4214348;28;20418;-68
2023/05/15 05:24:48;;;;;;;7.70;2.90;;;;;;;15.40;49.50;99586.44;4221348;28;20406;-63
2023/05/15 05:27:14;;;;;;;10.17;3.00;;;;;;;15.42;49.41;99572.59;4212734;28;20236;-63
2023/05/15 05:29:41;;;;;;;7.40;2.73;;;;;;;15.35;49.65;99578.88;4219966;28;21615;-63
2023/05/15 05:32:08;;;;;;;8.70;2.70;;;;;;;15.35;49.19;99576.13;4205662;28;20243;-62
2023/05/15 05:34:34;;;;;;;9.80;3.17;;;;;;;15.39;49.36;99573.84;4217340;28;20235;-65
2023/05/15 05:37:01;;;;;;;7.43;2.70;;;;;;;15.46;49.20;99569.28;4216252;28;20308;-64
2023/05/15 05:39:28;;;;;;;8.40;3.60;;;;;;;15.42;49.27;99567.16;4220826;28;20234;-62
2023/05/15 05:41:54;;;;;;;7.37;2.80;;;;;;;15.44;49.19;99565.06;4216514;28;20378;-64
2023/05/15 05:44:21;;;;;;;8.70;3.13;;;;;;;15.48;49.08;99567.19;4211388;28;21800;-67
2023/05/15 05:46:48;;;;;;;8.47;2.67;;;;;;;15.50;49.16;99565.13;4214220;28;20897;-69
2023/05/15 05:49:14;;;;;;;8.77;3.07;;;;;;;15.51;49.42;99571.41;4201867;28;20232;-66
2023/05/15 05:51:41;;;;;;;8.70;2.80;;;;;;;15.56;48.79;99565.34;4211578;28;20563;-66
2023/05/15 05:54:07;;;;;;;5.57;2.67;;;;;;;15.61;49.04;99576.50;4193133;28;20351;-67
2023/05/15 05:56:34;;;;;;;7.67;2.90;;;;;;;15.51;51.07;99583.19;4206424;28;21262;-69
2023/05/15 05:59:00;;;;;;;8.63;3.20;;;;;;;15.54;51.21;99571.03;4210317;28;20249;-66
2023/05/15 06:01:27;;;;;;;5.83;3.00;;;;;;;15.53;50.85;99574.78;4219299;28;20406;-67
2023/05/15 06:03:54;;;;;;;11.13;3.50;;;;;;;15.50;51.33;99584.22;4211411;28;20232;-66
2023/05/15 06:06:21;;;;;;;7.57;3.30;;;;;;;15.53;51.19;99581.06;4207479;28;20275;-69
2023/05/15 06:08:48;;;;;;;6.97;2.90;;;;;;;15.43;51.32;99591.53;4216479;28;20315;-66
2023/05/15 06:11:15;;;;;;;11.90;3.30;;;;;;;15.48;50.51;99588.19;4219616;28;21271;-69
2023/05/15 06:13:42;;;;;;;6.93;3.20;;;;;;;15.27;52.69;99584.47;4216719;28;20277;-65
2023/05/15 06:16:08;;;;;;;10.07;3.20;;;;;;;15.29;52.37;99589.75;4199714;28;20240;-66
2023/05/15 06:18:35;;;;;;;7.50;3.37;;;;;;;15.17;53.27;99592.19;4213900;28;20508;-69
2023/05/15 06:21:02;;;;;;;11.80;3.13;;;;;;;15.09;53.63;99595.06;4213585;28;20249;-70
2023/05/15 06:23:28;;;;;;;9.37;3.33;;;;;;;14.97;54.56;99592.84;4199922;28;20240;-71
2023/05/15 06:25:55;;;;;;;12.93;3.50;;;;;;;14.80;56.18;99595.03;4216700;28;20242;-69
2023/05/15 06:28:22;;;;;;;7.63;3.37;;;;;;;14.54;58.06;99596.41;4216772;28;20563;-67
2023/05/15 06:30:48;;;;;;;11.37;2.83;;;;;;;14.56;58.80;99588.91;4205280;28;20422;-72
2023/05/15 06:33:15;;;;;;;7.23;3.53;;;;;;;14.39;58.90;99599.19;4200224;28;21303;-70
2023/05/15 06:35:41;;;;;;;12.37;3.60;;;;;;;14.19;60.91;99604.41;4207437;28;22729;-69
2023/05/15 06:38:08;;;;;;;8.17;3.83;;;;;;;14.10;62.08;99605.56;4215444;28;21788;-69
2023/05/15 06:40:34;;;;;;;7.13;4.10;;;;;;;13.98;63.17;99607.94;4217481;28;23035;-66
2023/05/15 06:43:01;;;;;;;6.97;3.67;;;;;;;13.93;63.09;99599.50;4213760;28;20233;-66
2023/05/15 06:45:27;;;;;;;8.67;4.03;;;;;;;13.77;65.71;99612.28;4223412;28;20241;-65
2023/05/15 06:47:54;;;;;;;10.70;4.30;;;;;;;13.56;66.64;99604.88;4210317;28;20261;-66
2023/05/15 06:50:21;;;;;;;10.70;4.40;;;;;;;13.38;69.42;99598.94;4216006;28;20237;-70
2023/05/15 06:52:47;;;;;;;12.73;5.23;;;;;;;13.25;71.40;99605.00;4215293;28;20328;-67
2023/05/15 06:55:14;;;;;;;14.33;5.23;;;;;;;13.14;71.18;99596.25;4207991;28;22502;-66
2023/05/15 06:57:40;;;;;;;9.47;4.93;;;;;;;12.91;71.96;99598.22;4207192;28;20352;-67
2023/05/15 07:00:07;;;;;;;18.87;6.10;;;;;;;12.77;74.07;99600.69;4213743;28;20730;-64
2023/05/15 07:02:34;;;;;;;14.20;5.20;;;;;;;12.64;74.06;99598.59;4207614;28;20423;-66
2023/05/15 07:05:00;;;;;;;12.63;5.23;;;;;;;12.51;74.89;99604.63;4215787;28;20313;-66
2023/05/15 07:07:27;;;;;;;15.17;5.60;;;;;;;12.44;75.98;99587.38;4218548;28;20361;-69
2023/05/15 07:09:53;;;;;;;12.07;6.10;;;;;;;12.40;77.98;99596.88;4214103;28;20410;-72
2023/05/15 07:12:19;;;;;;;13.73;6.17;;;;;;;12.34;76.72;99594.91;4203642;28;20886;-69
2023/05/15 07:14:46;;;;;;;13.23;6.00;;;;;;;12.22;76.93;99589.03;4212004;28;21254;-68
2023/05/15 07:17:13;;;;;;;14.33;6.30;;;;;;;12.11;78.26;99590.28;4212938;28;23565;-65
2023/05/15 07:19:39;;;;;;;14.13;6.13;;;;;;;12.07;79.43;99593.53;4194103;28;20570;-67
2023/05/15 07:22:06;;;;;;;13.63;7.10;;;;;;;12.07;79.70;99586.25;4213553;28;20401;-64
2023/05/15 07:24:33;;;;;;;15.40;6.17;;;;;;;12.05;79.60;99596.44;4211746;28;20232;-64
2023/05/15 07:26:59;;;;;;;16.97;7.13;;;;;;;12.03;81.51;99585.78;4212839;28;20242;-69
2023/05/15 07:29:26;;;;;;;20.50;7.07;;;;;;;12.03;81.89;99602.03;4208076;28;23687;-66
2023/05/15 07:31:52;;;;;;;13.40;7.77;;;;;;;12.08;82.76;99589.81;4188172;28;20304;-67
2023/05/15 07:34:19;;;;;;;17.27;8.13;;;;;;;12.12;82.90;99594.69;4217254;28;20232;-65
2023/05/15 07:36:46;;;;;;;18.90;8.33;;;;;;;12.05;82.42;99588.28;4210334;28;20295;-66
2023/05/15 07:39:12;;;;;;;14.33;8.00;;;;;;;12.05;82.45;99583.69;4216681;28;20224;-67
2023/05/15 07:41:39;;;;;;;15.60;8.40;;;;;;;12.04;83.90;99581.16;4207380;28;20295;-70
2023/05/15 07:44:06;;;;;;;17.43;8.20;;;;;;;12.13;82.24;99579.25;4208335;28;20300;-68
2023/05/15 07:46:33;;;;;;;19.90;8.27;;;;;;;12.08;83.21;99582.53;4210114;28;22979;-67
2023/05/15 07:49:00;;;;;;;19.13;8.07;;;;;;;12.10;83.04;99575.03;4204026;28;21996;-67
2023/05/15 07:51:26;;;;;;;16.97;7.30;;;;;;;12.12;83.55;99572.16;4205699;28;20232;-67
2023/05/15 07:53:53;;;;;;;17.50;8.30;;;;;;;12.14;82.25;99570.09;4203817;28;22741;-66
2023/05/15 07:56:20;;;;;;;18.23;7.83;;;;;;;12.16;83.17;99570.75;4207409;28;20235;-66
2023/05/15 07:58:47;;;;;;;19.27;8.20;;;;;;;12.16;83.53;99563.44;4217514;28;20322;-70
2023/05/15 08:01:14;;;;;;;21.07;8.73;;;;;;;12.19;83.49;99567.72;4239067;28;22038;-75
2023/05/15 08:03:40;;;;;;;13.33;8.67;;;;;;;12.36;82.45;99563.00;4252624;28;20312;-65
2023/05/15 08:06:07;;;;;;;16.27;8.33;;;;;;;12.41;82.18;99554.31;4227439;28;20228;-64
2023/05/15 08:08:33;;;;;;;13.70;7.47;;;;;;;12.39;81.45;99550.94;4221787;28;22706;-65
2023/05/15 08:11:00;;;;;;;22.27;7.43;;;;;;;12.40;81.89;99553.47;4213624;28;23672;-65
2023/05/15 08:13:27;;;;;;;15.77;7.87;;;;;;;12.29;82.05;99551.19;4216974;28;20306;-66
2023/05/15 08:15:54;;;;;;;16.07;7.57;;;;;;;12.14;81.87;99549.25;4207380;28;20263;-66
2023/05/15 08:18:20;;;;;;;16.40;8.17;;;;;;;12.23;82.05;99544.59;4224407;28;20806;-65
2023/05/15 08:20:47;;;;;;;18.07;8.07;;;;;;;12.25;82.61;99538.97;4229171;28;20243;-63
2023/05/15 08:23:14;;;;;;;15.60;8.23;;;;;;;12.26;81.64;99541.53;4221264;28;20530;-65
2023/05/15 08:25:41;;;;;;;13.97;7.90;;;;;;;12.28;79.84;99541.34;4225668;28;20592;-65
2023/05/15 08:28:09;;;;;;;12.30;6.90;;;;;;;12.40;79.02;99533.63;4217371;28;21757;-64
2023/05/15 08:30:36;;;;;;;16.30;7.80;;;;;;;12.54;79.83;99537.44;4223287;28;20232;-64
2023/05/15 08:33:03;;;;;;;11.43;6.70;;;;;;;12.60;79.05;99529.38;4203002;28;20237;-65
2023/05/15 08:35:32;;;;;;;15.83;7.53;;;;;;;12.62;77.55;99535.47;4234796;28;20453;-62
2023/05/15 08:37:59;;;;;;;14.80;7.20;;;;;;;12.66;77.52;99528.63;4222024;28;20535;-62
2023/05/15 08:40:27;;;;;;;11.60;7.70;;;;;;;12.70;79.50;99525.56;4194913;28;20310;-66
2023/05/15 08:43:13;;;;;;;20.53;7.20;;;;;;;12.81;77.59;99525.97;4214354;28;20506;-64
2023/05/15 08:45:40;;;;;;;15.50;6.47;;;;;;;12.84;76.59;99514.72;4222044;28;20305;-63
2023/05/15 08:48:12;;;;;;;14.00;6.87;;;;;;;12.80;76.23;99518.84;4214823;28;21097;-51
2023/05/15 08:50:40;;;;;;;15.50;7.43;;;;;;;12.88;77.36;99511.66;4204591;28;21103;-65
2023/05/15 08:53:06;;;;;;;13.10;6.73;;;;;;;12.81;76.66;99514.25;4214544;28;20251;-64
2023/05/15 08:55:33;;;;;;;12.63;6.70;;;;;;;12.77;77.37;99505.63;4214815;28;20315;-64
2023/05/15 08:58:00;;;;;;;10.60;7.20;;;;;;;12.73;78.75;99492.59;4198858;28;21831;-67
2023/05/15 09:00:27;;;;;;;10.80;6.73;;;;;;;12.64;78.35;99495.41;4229823;28;21630;-68
2023/05/15 09:02:54;;;;;;;12.50;7.30;;;;;;;12.62;79.04;99500.19;4216615;28;22935;-70
2023/05/15 09:05:21;;;;;;;12.30;7.23;;;;;;;12.52;79.97;99508.59;4217925;28;22650;-67
2023/05/15 09:07:48;;;;;;;14.60;8.30;;;;;;;12.50;80.96;99509.81;4204237;28;20609;-73
2023/05/15 09:10:14;;;;;;;18.23;8.53;;;;;;;12.35;82.21;99513.28;4187402;28;20337;-65
2023/05/15 09:12:46;;;;;;;15.43;9.07;;;;;;;12.31;83.79;99511.16;4208039;28;21069;-64
2023/05/15 09:15:17;;;;;;;17.23;8.80;;;;;;;12.19;83.77;99519.69;4217955;28;20308;-67
2023/05/15 09:17:44;;;;;;;22.97;10.50;;;;;;;12.15;85.19;99528.38;4198684;28;20249;-66
2023/05/15 09:20:29;;;;;;;22.93;11.87;;;;;;;12.13;86.46;99525.84;4202893;28;20239;-66
2023/05/15 09:22:57;;;;;;;21.37;10.67;;;;;;;12.28;86.45;99527.78;4211766;28;20558;-64
2023/05/15 09:25:51;;;;;;;16.20;10.70;;;;;;;12.23;85.95;99506.63;4210616;28;20236;-67
2023/05/15 09:28:27;;;;;;;20.60;11.10;;;;;;;12.30;86.37;99498.59;4228100;28;23688;-65
2023/05/15 09:31:04;;;;;;;17.13;10.53;;;;;;;12.31;86.18;99494.88;4219556;28;20633;-65
2023/05/15 09:33:35;;;;;;;16.97;11.20;;;;;;;12.23;86.52;99497.66;4221913;28;20321;-68
2023/05/15 09:36:03;;;;;;;20.50;10.60;;;;;;;12.20;86.33;99505.09;4205279;28;21662;-67
2023/05/15 09:38:34;;;;;;;20.43;11.37;;;;;;;12.22;87.36;99488.63;4216251;28;25129;-67
2023/05/15 09:41:05;;;;;;;17.57;11.33;;;;;;;12.28;87.52;99489.78;4224459;28;20423;-68
2023/05/15 09:43:39;;;;;;;27.43;12.33;;;;;;;12.29;88.18;99488.78;4214717;28;20299;-69
2023/05/15 09:46:07;;;;;;;17.27;11.43;;;;;;;12.20;87.71;99480.69;4193195;28;20233;-69
2023/05/15 09:48:34;;;;;;;18.07;11.27;;;;;;;12.15;88.33;99479.53;4214116;28;20386;-68
2023/05/15 09:51:01;;;;;;;21.90;11.33;;;;;;;12.14;87.85;99465.16;4230052;28;20995;-67
2023/05/15 09:53:28;;;;;;;22.43;12.80;;;;;;;12.17;88.64;99478.31;4204472;28;20449;-69
2023/05/15 09:55:55;;;;;;;20.30;12.03;;;;;;;12.21;87.68;99476.09;4203997;28;20300;-68
2023/05/15 09:58:22;;;;;;;18.07;12.03;;;;;;;12.13;87.66;99477.00;4219064;28;20301;-69
2023/05/15 10:00:48;;;;;;;21.43;11.90;;;;;;;12.02;87.55;99472.00;4239953;28;20238;-69
2023/05/15 10:03:18;;;;;;;24.77;12.70;;;;;;;12.05;89.02;99472.47;4230303;28;20270;-69
2023/05/15 10:05:44;;;;;;;21.67;13.47;;;;;;;12.11;89.03;99468.22;4200655;28;20251;-69
2023/05/15 10:08:11;;;;;;;24.43;14.03;;;;;;;12.14;90.31;99462.44;4210761;28;20240;-68
2023/05/15 10:10:38;;;;;;;18.63;13.37;;;;;;;12.12;88.79;99461.75;4200055;28;26042;-65
2023/05/15 10:13:06;;;;;;;23.83;13.87;;;;;;;12.10;89.42;99460.25;4221056;28;20232;-66
2023/05/15 10:15:33;;;;;;;20.20;13.67;;;;;;;12.07;90.59;99464.19;4207686;28;25804;-66
2023/05/15 10:18:00;;;;;;;23.53;13.77;;;;;;;11.98;89.68;99468.81;4223461;28;20314;-68
2023/05/15 10:20:27;;;;;;;26.17;15.40;;;;;;;11.98;89.90;99465.25;4215110;28;20307;-69
2023/05/15 10:22:55;;;;;;;23.30;13.83;;;;;;;11.95;89.77;99458.31;4214987;28;20255;-66
2023/05/15 10:25:32;;;;;;;22.07;13.57;;;;;;;11.87;90.10;99469.19;4195720;28;21964;-66
2023/05/15 10:27:58;;;;;;;24.80;13.73;;;;;;;11.91;90.25;99472.41;4221338;28;20461;-66
2023/05/15 10:30:26;;;;;;;20.40;14.90;;;;;;;11.95;90.45;99462.88;4218015;28;21829;-67
2023/05/15 10:32:54;;;;;;;22.47;15.73;;;;;;;11.92;90.77;99480.34;4222217;28;21782;-65
2023/05/15 10:35:21;;;;;;;27.53;17.17;;;;;;;11.92;91.34;99474.91;4225933;28;20246;-65
2023/05/15 10:37:48;;;;;;;25.53;16.93;;;;;;;11.96;91.63;99468.13;4211508;28;20308;-65
2023/05/15 10:40:16;;;;;;;27.23;17.10;;;;;;;11.98;91.50;99474.22;4220797;28;21790;-63
2023/05/15 10:42:44;;;;;;;28.23;17.00;;;;;;;11.97;91.55;99472.53;4215016;28;20631;-68
2023/05/15 10:45:11;;;;;;;29.83;17.67;;;;;;;12.05;92.23;99477.91;4218063;28;22430;-65
2023/05/15 10:47:40;;;;;;;27.47;17.40;;;;;;;12.00;91.78;99474.06;4221472;28;24786;-68
2023/05/15 10:50:07;;;;;;;31.23;18.70;;;;;;;12.18;92.58;99465.63;4207081;28;20283;-63
2023/05/15 10:52:38;;;;;;;29.53;17.90;;;;;;;12.12;92.05;99464.47;4219857;28;20686;-64
2023/05/15 10:55:22;;;;;;;26.20;16.00;;;;;;;12.11;91.91;99467.38;4218990;28;20343;-65
2023/05/15 10:57:49;;;;;;;25.70;16.37;;;;;;;12.08;91.79;99463.16;4212774;28;20681;-66
2023/05/15 11:00:21;;;;;;;23.70;16.23;;;;;;;12.17;92.16;99472.06;4222727;28;20239;-66
2023/05/15 11:02:54;;;;;;;28.93;16.13;;;;;;;12.20;92.11;99463.53;4215276;28;20246;-64
2023/05/15 11:05:21;;;;;;;23.53;15.97;;;;;;;12.09;91.33;99461.28;4200736;28;21980;-60
2023/05/15 11:08:18;;;;;;;22.10;14.07;;;;;;;12.06;91.20;99459.78;4217106;28;20309;-65
2023/05/15 11:10:44;;;;;;;26.60;16.20;;;;;;;11.99;92.12;99456.09;4208003;28;20994;-67
2023/05/15 11:13:11;;;;;;;22.83;15.90;;;;;;;11.99;92.70;99456.09;4212373;28;22324;-66
2023/05/15 11:15:41;;;;;;;27.40;15.83;;;;;;;11.92;92.10;99457.81;4215765;28;20284;-64
2023/05/15 11:18:08;;;;;;;21.30;14.83;;;;;;;11.86;91.96;99472.94;4221861;28;21402;-64
2023/05/15 11:20:42;;;;;;;18.73;15.10;;;;;;;11.81;92.19;99457.19;4207415;28;21105;-67
2023/05/15 11:23:08;;;;;;;22.70;15.70;;;;;;;11.86;93.04;99462.09;4200699;28;21959;-64
2023/05/15 11:25:35;;;;;;;24.53;15.83;;;;;;;11.83;93.08;99459.72;4209142;28;20573;-66
2023/05/15 11:28:03;;;;;;;20.30;13.97;;;;;;;11.82;92.94;99456.19;4210382;28;20295;-66
2023/05/15 11:30:40;;;;;;;19.60;13.80;;;;;;;11.82;93.18;99447.22;4210126;28;20287;-66
2023/05/15 11:33:09;;;;;;;20.97;15.30;;;;;;;11.85;93.47;99449.56;4203502;28;20299;-66